Time;durP1;ratioP1;P1;durP2;ratioP2;P2;SDS_P1;SDS_P2;PMS_P1;PMS_P2;Temp;Humidity;BMP_temperature;BMP_pressure;BME280_temperature;BME280_humidity;BME280_pressure;Samples;Min_cycle;Max_cycle;Signal;HPM_P1;HPM_P2
2022/12/06 00:01:41;;;;;;;8.95;3.20;;;6.10;99.90;;;;;;4916874;29;20075;-83
2022/12/06 00:04:13;;;;;;;12.02;4.82;;;6.10;99.90;;;;;;4914763;29;20040;-83
2022/12/06 00:06:42;;;;;;;6.47;3.00;;;6.10;99.90;;;;;;4915524;29;20050;-83
2022/12/06 00:09:10;;;;;;;8.52;3.58;;;6.10;99.90;;;;;;4913599;29;20520;-83
2022/12/06 00:11:36;;;;;;;11.23;3.20;;;6.10;99.90;;;;;;4916094;29;20099;-83
2022/12/06 00:14:05;;;;;;;7.80;3.35;;;6.10;99.90;;;;;;4914662;29;20043;-82
2022/12/06 00:16:32;;;;;;;8.85;3.25;;;6.10;99.90;;;;;;4915384;29;20441;-82
2022/12/06 00:18:58;;;;;;;10.80;3.70;;;6.10;99.90;;;;;;4916506;29;20107;-83
2022/12/06 00:21:27;;;;;;;6.22;2.95;;;6.10;99.90;;;;;;4916299;29;20484;-82
2022/12/06 00:23:58;;;;;;;8.48;3.20;;;6.10;99.90;;;;;;4915491;29;20412;-83
2022/12/06 00:26:25;;;;;;;7.30;2.70;;;6.10;99.90;;;;;;4916381;29;20046;-82
2022/12/06 00:28:55;;;;;;;8.57;3.28;;;6.10;99.90;;;;;;4916392;29;20047;-83
2022/12/06 00:31:22;;;;;;;7.15;2.88;;;6.10;99.90;;;;;;4914011;29;20079;-83
2022/12/06 00:33:49;;;;;;;7.22;2.50;;;6.10;99.90;;;;;;4914979;29;20131;-83
2022/12/06 00:36:26;;;;;;;6.25;2.75;;;6.00;99.90;;;;;;4916093;29;20088;-83
2022/12/06 00:38:52;;;;;;;6.78;2.70;;;6.10;99.90;;;;;;4915574;29;20056;-83
2022/12/06 00:41:23;;;;;;;7.32;2.88;;;6.00;99.90;;;;;;4915512;29;20044;-83
2022/12/06 00:43:50;;;;;;;7.15;2.95;;;6.00;99.90;;;;;;4914631;29;20556;-83
2022/12/06 00:46:24;;;;;;;8.63;2.65;;;6.00;99.90;;;;;;4915872;29;20400;-83
2022/12/06 00:48:51;;;;;;;8.57;3.00;;;6.00;99.90;;;;;;4914805;29;20043;-83
2022/12/06 00:51:20;;;;;;;6.82;2.58;;;6.00;99.90;;;;;;4915368;29;20052;-83
2022/12/06 00:53:46;;;;;;;7.00;2.50;;;6.00;99.90;;;;;;4916211;29;20072;-82
2022/12/06 00:56:13;;;;;;;6.40;2.40;;;6.00;99.90;;;;;;4915568;29;20488;-83
2022/12/06 00:58:39;;;;;;;7.07;2.60;;;6.00;99.90;;;;;;4914644;29;20085;-82
2022/12/06 01:01:13;;;;;;;5.43;2.40;;;6.00;99.90;;;;;;4916299;29;20465;-82
2022/12/06 01:03:39;;;;;;;5.40;2.22;;;6.00;99.90;;;;;;4919164;29;20048;-82
2022/12/06 01:06:08;;;;;;;7.63;2.97;;;6.00;99.90;;;;;;4919340;29;20040;-82
2022/12/06 01:08:34;;;;;;;7.32;2.63;;;6.00;99.90;;;;;;4919114;29;20071;-82
2022/12/06 01:11:00;;;;;;;8.90;2.22;;;6.00;99.90;;;;;;4919475;29;20039;-83
2022/12/06 01:13:26;;;;;;;5.68;2.33;;;5.90;99.90;;;;;;4917905;29;20047;-82
2022/12/06 01:15:53;;;;;;;7.38;2.78;;;5.90;99.90;;;;;;4918549;29;20059;-83
2022/12/06 01:18:19;;;;;;;8.25;2.60;;;6.00;99.90;;;;;;4918515;29;20087;-82
2022/12/06 01:20:45;;;;;;;6.30;2.40;;;5.90;99.90;;;;;;4918942;29;20083;-82
2022/12/06 01:23:11;;;;;;;8.57;2.63;;;5.90;99.90;;;;;;4918250;29;20051;-83
2022/12/06 01:25:36;;;;;;;9.90;3.17;;;5.90;99.90;;;;;;4918133;29;20048;-83
2022/12/06 01:28:03;;;;;;;7.03;2.60;;;5.90;99.90;;;;;;4918625;29;20044;-83
2022/12/06 01:30:28;;;;;;;8.15;2.58;;;5.90;99.90;;;;;;4919160;29;20104;-82
2022/12/06 01:32:54;;;;;;;6.50;2.40;;;5.90;99.90;;;;;;4919503;29;20497;-82
2022/12/06 01:35:19;;;;;;;7.85;2.67;;;5.90;99.90;;;;;;4918526;29;20037;-83
2022/12/06 01:37:45;;;;;;;8.15;2.50;;;5.90;99.90;;;;;;4918646;29;20080;-83
2022/12/06 01:40:11;;;;;;;6.72;2.47;;;5.90;99.90;;;;;;4918776;29;20036;-82
2022/12/06 01:42:37;;;;;;;7.47;2.60;;;5.90;99.90;;;;;;4917467;29;20610;-83
2022/12/06 01:45:04;;;;;;;7.22;2.00;;;5.90;99.90;;;;;;4918053;29;20103;-83
2022/12/06 01:47:40;;;;;;;7.63;2.80;;;5.90;99.90;;;;;;4905930;29;20393;-82
2022/12/06 01:50:17;;;;;;;7.65;2.58;;;5.90;99.90;;;;;;4913049;29;20041;-82
2022/12/06 01:53:01;;;;;;;9.32;2.83;;;5.90;99.90;;;;;;4917667;29;20135;-82
2022/12/06 01:55:31;;;;;;;7.60;2.60;;;5.80;99.90;;;;;;4916443;29;20056;-83
2022/12/06 01:58:10;;;;;;;7.82;2.42;;;5.80;99.90;;;;;;4916532;29;20135;-82
2022/12/06 02:00:36;;;;;;;5.47;2.20;;;5.90;99.90;;;;;;4917512;29;20103;-82
2022/12/06 02:03:07;;;;;;;5.93;2.40;;;5.80;99.90;;;;;;4918260;29;20429;-83
2022/12/06 02:05:36;;;;;;;7.18;2.47;;;5.90;99.90;;;;;;4917616;29;20040;-82
2022/12/06 02:08:03;;;;;;;6.53;2.20;;;5.90;99.90;;;;;;4918891;29;20047;-82
2022/12/06 02:10:30;;;;;;;6.65;2.50;;;5.80;99.90;;;;;;4917390;29;20062;-82
2022/12/06 02:12:58;;;;;;;7.20;2.45;;;5.90;99.90;;;;;;4916541;29;20075;-82
2022/12/06 02:15:30;;;;;;;6.22;2.38;;;5.90;99.90;;;;;;4916876;29;20496;-82
2022/12/06 02:18:04;;;;;;;7.13;2.40;;;5.90;99.90;;;;;;4918974;29;20096;-82
2022/12/06 02:20:40;;;;;;;7.97;2.65;;;5.80;99.90;;;;;;4917712;29;20515;-82
2022/12/06 02:23:18;;;;;;;6.55;2.50;;;5.90;99.90;;;;;;4917657;29;20052;-83
2022/12/06 02:26:08;;;;;;;9.35;2.60;;;5.80;99.90;;;;;;4917688;29;20479;-82
2022/12/06 02:28:50;;;;;;;5.85;2.30;;;5.80;99.90;;;;;;4917527;29;20079;-82
2022/12/06 02:31:40;;;;;;;6.73;2.37;;;5.80;99.90;;;;;;4917301;29;20044;-82
2022/12/06 02:34:15;;;;;;;7.43;2.35;;;5.80;99.90;;;;;;4917897;29;20036;-82
2022/12/06 02:36:55;;;;;;;6.10;2.33;;;5.80;99.90;;;;;;4917376;29;20068;-82
2022/12/06 02:39:34;;;;;;;6.68;2.67;;;5.80;99.90;;;;;;4918526;29;20052;-82
2022/12/06 02:42:10;;;;;;;7.15;2.20;;;5.80;99.90;;;;;;4917055;29;20496;-82
2022/12/06 02:44:40;;;;;;;5.63;2.40;;;5.80;99.90;;;;;;4918339;29;20039;-82
2022/12/06 02:47:10;;;;;;;7.47;2.60;;;5.80;99.90;;;;;;4916991;29;20384;-82
2022/12/06 02:49:43;;;;;;;6.25;2.20;;;5.80;99.90;;;;;;4917516;29;21785;-83
2022/12/06 02:52:11;;;;;;;8.85;2.28;;;5.80;99.90;;;;;;4916289;29;20044;-82
2022/12/06 02:54:38;;;;;;;5.03;1.92;;;5.80;99.90;;;;;;4918309;29;20048;-83
2022/12/06 02:57:04;;;;;;;7.07;2.10;;;5.80;99.90;;;;;;4917430;29;20055;-82
2022/12/06 02:59:29;;;;;;;6.38;2.50;;;5.80;99.90;;;;;;4915257;29;20052;-82
2022/12/06 03:01:58;;;;;;;7.32;2.33;;;5.80;99.90;;;;;;4918332;29;20511;-82
2022/12/06 03:04:48;;;;;;;5.43;2.42;;;5.80;99.90;;;;;;4918108;29;20079;-82
2022/12/06 03:07:40;;;;;;;6.45;2.10;;;5.80;99.90;;;;;;4917625;29;20050;-82
2022/12/06 03:10:31;;;;;;;4.80;2.00;;;5.70;99.90;;;;;;4906010;29;20135;-82
2022/12/06 03:13:15;;;;;;;8.85;2.20;;;5.80;99.90;;;;;;4916017;29;20070;-82
2022/12/06 03:15:40;;;;;;;9.38;2.13;;;5.70;99.90;;;;;;4916075;29;20082;-82
2022/12/06 03:18:36;;;;;;;4.10;1.85;;;5.70;99.90;;;;;;4916764;29;20441;-82
2022/12/06 03:21:16;;;;;;;5.63;2.20;;;5.70;99.90;;;;;;4917141;29;20062;-82
2022/12/06 03:23:46;;;;;;;5.07;2.20;;;5.70;99.90;;;;;;4915240;29;20083;-82
2022/12/06 03:26:15;;;;;;;6.68;1.92;;;5.70;99.90;;;;;;4916905;29;20059;-82
2022/12/06 03:28:42;;;;;;;6.30;1.92;;;5.70;99.90;;;;;;4916219;29;20167;-82
2022/12/06 03:31:13;;;;;;;5.40;1.90;;;5.70;99.90;;;;;;4911743;29;20134;-82
2022/12/06 03:34:02;;;;;;;4.82;1.65;;;5.70;99.90;;;;;;4915842;29;20677;-82
2022/12/06 03:36:30;;;;;;;5.95;2.13;;;5.70;99.90;;;;;;4915996;29;20385;-82
2022/12/06 03:39:06;;;;;;;6.30;1.90;;;5.70;99.90;;;;;;4916423;29;20489;-82
2022/12/06 03:41:48;;;;;;;5.20;1.70;;;5.70;99.90;;;;;;4915475;29;20045;-82
2022/12/06 03:44:14;;;;;;;3.55;1.50;;;5.70;99.90;;;;;;4917438;29;20040;-82
2022/12/06 03:46:46;;;;;;;5.07;1.98;;;5.70;99.90;;;;;;4915996;29;20051;-82
2022/12/06 03:49:27;;;;;;;6.03;1.80;;;5.70;99.90;;;;;;4914896;29;20055;-82
2022/12/06 03:51:53;;;;;;;4.55;1.90;;;5.70;99.90;;;;;;4914136;29;20131;-82
2022/12/06 03:54:19;;;;;;;7.38;1.75;;;5.70;99.90;;;;;;4916270;29;20076;-82
2022/12/06 03:56:45;;;;;;;4.72;1.50;;;5.70;99.90;;;;;;4917539;29;20106;-83
2022/12/06 03:59:10;;;;;;;4.20;1.70;;;5.60;99.90;;;;;;4915853;29;20048;-82
2022/12/06 04:01:37;;;;;;;4.78;1.40;;;5.60;99.90;;;;;;4906706;29;20044;-82
2022/12/06 04:04:03;;;;;;;6.57;1.75;;;5.60;99.90;;;;;;4911622;29;20074;-82
2022/12/06 04:06:28;;;;;;;4.90;1.55;;;5.60;99.90;;;;;;4916638;29;20071;-82
2022/12/06 04:09:51;;;;;;;6.90;2.03;;;5.70;99.90;;;;;;4915592;29;20131;-82
2022/12/06 04:11:40;;;;;;;5.72;1.60;;;5.60;99.90;;;;;;4917132;29;20507;-82
2022/12/06 04:14:05;;;;;;;7.28;1.70;;;5.60;99.90;;;;;;4916089;29;20048;-82
2022/12/06 04:19:15;;;;;;;4.72;1.70;;;5.60;99.90;;;;;;4913437;23;20508;-82
2022/12/06 04:24:25;;;;;;;4.97;1.60;;;5.60;99.90;;;;;;4896090;29;20068;-82
2022/12/06 04:26:50;;;;;;;5.10;1.92;;;5.60;99.90;;;;;;4896608;29;20473;-82
2022/12/06 04:40:13;;;;;;;4.03;1.40;;;5.50;99.90;;;;;;4896059;29;20053;-82
2022/12/06 04:45:25;;;;;;;5.28;1.50;;;5.50;99.90;;;;;;4893233;29;20048;-81
2022/12/06 04:47:51;;;;;;;5.40;1.45;;;5.50;99.90;;;;;;4895803;29;20111;-82
2022/12/06 04:50:16;;;;;;;4.35;1.55;;;5.50;99.90;;;;;;4897040;29;20505;-82
2022/12/06 04:52:42;;;;;;;4.22;1.50;;;5.40;99.90;;;;;;4896614;29;20060;-83
2022/12/06 04:55:08;;;;;;;6.88;1.60;;;5.40;99.90;;;;;;4897567;29;20044;-82
2022/12/06 04:57:33;;;;;;;5.35;1.60;;;5.40;99.90;;;;;;4896282;29;20143;-83
2022/12/06 04:59:59;;;;;;;4.18;1.50;;;5.40;99.90;;;;;;4896110;29;20397;-83
2022/12/06 05:02:24;;;;;;;6.00;1.70;;;5.40;99.90;;;;;;4949798;23;20143;-89
2022/12/06 05:04:50;;;;;;;4.95;1.55;;;5.40;99.90;;;;;;4895800;29;20052;-89
2022/12/06 05:07:15;;;;;;;2.45;1.10;;;5.40;99.90;;;;;;4896218;29;20096;-89
2022/12/06 05:09:41;;;;;;;3.47;1.48;;;5.40;99.90;;;;;;4895772;29;20040;-89
2022/12/06 05:12:07;;;;;;;6.40;1.85;;;5.30;99.90;;;;;;4895441;29;20079;-89
2022/12/06 05:14:46;;;;;;;4.95;1.60;;;5.30;99.90;;;;;;4898331;29;20084;-95
2022/12/06 05:17:12;;;;;;;9.10;1.90;;;5.30;99.90;;;;;;4897703;29;20048;-83
2022/12/06 05:19:37;;;;;;;4.88;1.52;;;5.30;99.90;;;;;;4895814;29;20500;-83
2022/12/06 05:22:03;;;;;;;5.18;1.52;;;5.30;99.90;;;;;;4896483;29;20100;-82
2022/12/06 05:24:29;;;;;;;4.80;1.50;;;5.20;99.90;;;;;;4896013;29;20052;-82
2022/12/06 05:26:54;;;;;;;5.30;1.50;;;5.20;99.90;;;;;;4896046;29;20052;-82
2022/12/06 05:29:20;;;;;;;4.55;1.48;;;5.20;99.90;;;;;;4896658;29;20076;-82
2022/12/06 05:31:45;;;;;;;6.20;1.40;;;5.20;99.90;;;;;;4897681;29;20073;-82
2022/12/06 05:34:11;;;;;;;3.45;1.50;;;5.20;99.90;;;;;;4896786;29;20568;-82
2022/12/06 05:36:36;;;;;;;6.50;1.67;;;5.10;99.90;;;;;;4896375;29;20053;-82
2022/12/06 05:39:03;;;;;;;4.40;1.50;;;5.10;99.90;;;;;;4896501;29;20051;-82
2022/12/06 05:41:28;;;;;;;5.15;1.48;;;5.10;99.90;;;;;;4896531;29;20053;-82
2022/12/06 05:43:54;;;;;;;4.05;1.50;;;5.10;99.90;;;;;;4897889;29;20053;-82
2022/12/06 05:46:19;;;;;;;4.68;1.50;;;5.10;99.90;;;;;;4895728;29;20621;-82
2022/12/06 05:48:45;;;;;;;4.60;1.75;;;5.00;99.90;;;;;;4900220;29;20055;-82
2022/12/06 05:51:11;;;;;;;3.80;1.60;;;5.00;99.90;;;;;;4899385;29;20139;-82
2022/12/06 05:53:37;;;;;;;5.18;1.50;;;5.00;99.90;;;;;;4899016;29;20437;-82
2022/12/06 05:56:07;;;;;;;3.67;1.60;;;5.00;99.90;;;;;;4899572;29;20044;-82
2022/12/06 05:58:33;;;;;;;4.20;1.25;;;5.00;99.90;;;;;;4899483;29;20093;-82
2022/12/06 06:00:59;;;;;;;6.45;1.60;;;4.90;99.90;;;;;;4898618;29;20446;-82
2022/12/06 06:03:25;;;;;;;3.95;1.42;;;4.90;99.90;;;;;;4900370;29;20132;-82
2022/12/06 06:05:57;;;;;;;5.38;1.50;;;4.90;99.90;;;;;;4899835;29;20049;-82
2022/12/06 06:08:22;;;;;;;5.97;1.77;;;4.90;99.90;;;;;;4898464;29;20445;-82
2022/12/06 06:10:48;;;;;;;4.10;1.50;;;4.90;99.90;;;;;;4900653;29;20048;-82
2022/12/06 06:13:14;;;;;;;6.75;1.80;;;4.80;99.90;;;;;;4898843;29;20510;-82
2022/12/06 06:15:39;;;;;;;5.10;1.70;;;4.90;99.90;;;;;;4898227;29;20049;-82
2022/12/06 06:18:05;;;;;;;7.07;1.77;;;4.80;99.90;;;;;;4900733;29;20079;-82
2022/12/06 06:20:30;;;;;;;3.90;1.52;;;4.80;99.90;;;;;;4900170;29;20040;-82
2022/12/06 06:22:56;;;;;;;4.72;1.88;;;4.80;99.90;;;;;;4899507;29;20131;-82
2022/12/06 06:25:22;;;;;;;3.42;1.60;;;4.80;99.90;;;;;;4900019;29;20081;-82
2022/12/06 06:27:48;;;;;;;7.10;1.73;;;4.80;99.90;;;;;;4900539;29;20048;-82
2022/12/06 06:30:14;;;;;;;4.60;1.65;;;4.70;99.90;;;;;;4899063;29;20079;-82
2022/12/06 06:32:39;;;;;;;2.85;1.50;;;4.70;99.90;;;;;;4900423;29;20493;-82
2022/12/06 06:35:06;;;;;;;6.90;1.63;;;4.70;99.90;;;;;;4899296;29;20404;-82
2022/12/06 06:37:32;;;;;;;4.65;1.80;;;4.70;99.90;;;;;;4899381;29;20596;-82
2022/12/06 06:39:58;;;;;;;6.03;1.67;;;4.70;99.90;;;;;;4899918;29;20544;-82
2022/12/06 06:42:24;;;;;;;5.18;1.80;;;4.70;99.90;;;;;;4898616;29;20052;-82
2022/12/06 06:44:50;;;;;;;4.60;1.75;;;4.60;99.90;;;;;;4897957;29;20041;-82
2022/12/06 06:47:16;;;;;;;4.45;1.77;;;4.60;99.90;;;;;;4898460;29;20144;-83
2022/12/06 06:49:42;;;;;;;5.03;1.90;;;4.60;99.90;;;;;;4899849;29;20084;-82
2022/12/06 06:52:07;;;;;;;6.88;1.98;;;4.60;99.90;;;;;;4898548;29;20079;-82
2022/12/06 06:54:33;;;;;;;5.13;1.88;;;4.50;99.90;;;;;;4898416;29;20412;-82
2022/12/06 06:56:58;;;;;;;5.32;1.90;;;4.50;99.90;;;;;;4899125;29;20404;-82
2022/12/06 06:59:24;;;;;;;4.88;1.88;;;4.50;99.90;;;;;;4898048;29;20049;-82
2022/12/06 07:01:50;;;;;;;5.25;2.13;;;4.50;99.90;;;;;;4899598;29;20058;-82
2022/12/06 07:04:16;;;;;;;5.88;2.03;;;4.50;99.90;;;;;;4897232;29;20132;-84
2022/12/06 07:06:42;;;;;;;4.57;1.80;;;4.40;99.90;;;;;;4897879;29;20041;-82
2022/12/06 07:09:08;;;;;;;5.18;2.20;;;4.40;99.90;;;;;;4899161;29;20056;-82
2022/12/06 07:11:34;;;;;;;6.00;2.03;;;4.40;99.90;;;;;;4897408;29;20052;-82
2022/12/06 07:14:01;;;;;;;7.40;2.28;;;4.40;99.90;;;;;;4897845;29;20095;-82
2022/12/06 07:16:27;;;;;;;6.60;2.08;;;4.30;99.90;;;;;;4897528;29;20048;-82
2022/12/06 07:18:52;;;;;;;5.72;2.40;;;4.30;99.90;;;;;;4898584;29;20048;-82
2022/12/06 07:21:18;;;;;;;6.97;2.20;;;4.30;99.90;;;;;;4896980;29;20079;-82
2022/12/06 07:23:44;;;;;;;6.32;2.50;;;4.30;99.90;;;;;;4897166;29;20059;-82
2022/12/06 07:26:15;;;;;;;5.28;2.38;;;4.30;99.90;;;;;;4896156;29;20465;-82
2022/12/06 07:28:43;;;;;;;5.85;2.47;;;4.20;99.90;;;;;;4897665;29;20041;-82
2022/12/06 07:31:21;;;;;;;9.20;2.50;;;4.20;99.90;;;;;;4897622;29;20064;-82
2022/12/06 07:33:50;;;;;;;5.15;2.30;;;4.20;99.90;;;;;;4898299;29;20060;-83
2022/12/06 07:36:16;;;;;;;6.20;2.28;;;4.20;99.90;;;;;;4898602;29;20049;-82
2022/12/06 07:38:46;;;;;;;7.80;2.50;;;4.10;99.90;;;;;;4897619;29;20127;-81
2022/12/06 07:46:46;;;;;;;5.82;2.63;;;4.10;99.90;;;;;;4896744;29;20135;-84
2022/12/06 07:49:11;;;;;;;7.43;2.40;;;4.00;99.90;;;;;;4897738;29;20065;-83
2022/12/06 07:51:38;;;;;;;4.78;2.20;;;4.00;99.90;;;;;;4897201;29;20044;-83
2022/12/06 07:54:04;;;;;;;5.32;2.17;;;4.00;99.90;;;;;;4897568;29;20041;-83
2022/12/06 07:56:30;;;;;;;6.88;2.30;;;3.90;99.90;;;;;;4896829;29;20524;-84
2022/12/06 07:58:55;;;;;;;4.70;2.35;;;3.90;99.90;;;;;;4898247;29;20040;-83
2022/12/06 08:01:22;;;;;;;4.57;2.40;;;3.90;99.90;;;;;;4897743;29;20109;-83
2022/12/06 08:03:47;;;;;;;6.18;2.25;;;3.80;99.90;;;;;;4897229;29;20064;-83
2022/12/06 08:06:13;;;;;;;6.30;2.50;;;3.80;99.90;;;;;;4896861;29;20049;-83
2022/12/06 08:08:39;;;;;;;7.38;2.20;;;3.80;99.90;;;;;;4896626;29;20079;-83
2022/12/06 08:11:07;;;;;;;6.85;2.40;;;3.80;99.90;;;;;;4896359;29;20049;-83
2022/12/06 08:13:35;;;;;;;6.25;2.50;;;3.80;99.90;;;;;;4898116;29;20049;-84
2022/12/06 08:16:07;;;;;;;6.90;2.28;;;3.80;99.90;;;;;;4896177;29;20497;-83
2022/12/06 08:18:33;;;;;;;6.25;2.30;;;3.80;99.90;;;;;;4897455;29;20484;-83
2022/12/06 08:20:59;;;;;;;6.28;2.30;;;3.80;99.90;;;;;;4897813;29;20049;-83
2022/12/06 08:23:26;;;;;;;7.43;2.53;;;3.80;99.90;;;;;;4896183;29;20112;-83
2022/12/06 08:26:17;;;;;;;5.50;2.20;;;3.80;99.90;;;;;;4897296;29;20048;-83
2022/12/06 08:28:43;;;;;;;7.68;2.60;;;3.80;99.90;;;;;;4896144;29;20400;-83
2022/12/06 08:31:13;;;;;;;8.05;2.45;;;3.80;99.90;;;;;;4896904;29;20147;-83
2022/12/06 08:33:39;;;;;;;7.30;2.65;;;3.80;99.90;;;;;;4898035;29;20056;-84
2022/12/06 08:36:13;;;;;;;4.15;2.25;;;3.80;99.90;;;;;;4896058;29;20049;-83
2022/12/06 08:38:39;;;;;;;9.35;2.20;;;3.80;99.90;;;;;;4897406;29;20044;-83
2022/12/06 08:41:54;;;;;;;5.40;2.63;;;3.80;99.90;;;;;;4896853;29;20096;-82
2022/12/06 08:43:52;;;;;;;5.10;2.40;;;3.80;99.90;;;;;;4896093;29;20048;-83
2022/12/06 08:46:17;;;;;;;6.72;2.80;;;3.80;99.90;;;;;;4897866;29;20163;-83
2022/12/06 08:48:43;;;;;;;6.47;2.67;;;3.80;99.90;;;;;;4897112;29;20053;-82
2022/12/06 08:51:08;;;;;;;7.85;3.05;;;3.90;99.90;;;;;;4896873;29;20136;-84
2022/12/06 08:53:34;;;;;;;7.60;2.65;;;3.90;99.90;;;;;;4897440;29;20056;-83
2022/12/06 08:55:59;;;;;;;5.72;2.40;;;3.90;99.90;;;;;;4898094;29;20048;-84
2022/12/06 08:58:25;;;;;;;5.35;2.72;;;3.90;99.90;;;;;;4896983;29;20036;-84
2022/12/06 09:00:50;;;;;;;6.32;2.42;;;4.00;99.90;;;;;;4896754;29;20397;-84
2022/12/06 09:03:16;;;;;;;5.65;2.30;;;4.00;99.90;;;;;;4897368;29;20049;-84
2022/12/06 09:05:42;;;;;;;6.88;2.78;;;4.00;99.90;;;;;;4895951;29;20048;-84
2022/12/06 09:08:07;;;;;;;7.65;2.72;;;4.00;99.90;;;;;;4897679;29;20196;-84
2022/12/06 09:10:33;;;;;;;8.23;2.70;;;4.00;99.90;;;;;;4896788;29;20049;-83
2022/12/06 09:12:58;;;;;;;6.25;2.28;;;4.10;99.90;;;;;;4897802;29;20453;-83
2022/12/06 09:15:24;;;;;;;7.05;2.80;;;4.10;99.90;;;;;;4896238;29;20060;-83
2022/12/06 09:17:49;;;;;;;6.35;2.55;;;4.10;99.90;;;;;;4896056;29;20489;-83
2022/12/06 09:20:17;;;;;;;5.97;2.65;;;4.10;99.90;;;;;;4895704;29;20394;-83
2022/12/06 09:22:43;;;;;;;10.52;2.67;;;4.20;99.90;;;;;;4898259;29;20064;-83
2022/12/06 09:25:09;;;;;;;8.50;2.92;;;4.20;99.90;;;;;;4900381;29;20549;-83
2022/12/06 09:27:35;;;;;;;5.40;2.60;;;4.20;99.90;;;;;;4900245;29;20052;-84
2022/12/06 09:30:01;;;;;;;5.05;2.58;;;4.20;99.90;;;;;;4900281;29;20052;-84
2022/12/06 09:32:26;;;;;;;7.45;2.83;;;4.20;99.90;;;;;;4898383;29;20071;-83
2022/12/06 09:34:52;;;;;;;7.50;2.50;;;4.30;99.90;;;;;;4899821;29;20045;-83
2022/12/06 09:37:18;;;;;;;4.75;2.30;;;4.30;99.90;;;;;;4900716;29;20449;-83
2022/12/06 09:39:48;;;;;;;7.13;2.30;;;4.30;99.90;;;;;;4899174;29;20255;-83
2022/12/06 09:42:31;;;;;;;4.97;2.33;;;4.40;99.90;;;;;;4897683;29;20068;-84
2022/12/06 09:45:28;;;;;;;5.05;2.40;;;4.40;99.90;;;;;;4900156;29;20049;-84
2022/12/06 09:48:07;;;;;;;8.85;2.42;;;4.40;99.90;;;;;;4900417;29;20055;-83
2022/12/06 09:50:48;;;;;;;8.07;3.20;;;4.40;99.90;;;;;;4899167;29;20044;-86
2022/12/06 09:53:32;;;;;;;6.65;3.25;;;4.40;99.90;;;;;;4881066;29;20091;-83
2022/12/06 09:56:25;;;;;;;7.47;2.53;;;4.50;99.90;;;;;;4880868;29;20049;-84
2022/12/06 09:58:57;;;;;;;6.13;2.55;;;4.50;99.90;;;;;;4882244;29;20053;-84
2022/12/06 10:01:26;;;;;;;6.80;2.50;;;4.50;99.90;;;;;;4879877;29;20055;-84
2022/12/06 10:04:21;;;;;;;6.57;2.40;;;4.50;99.90;;;;;;4880516;29;20071;-84
2022/12/06 10:07:09;;;;;;;6.40;2.33;;;4.60;99.90;;;;;;4892064;29;20508;-84
2022/12/06 10:09:58;;;;;;;8.77;2.78;;;4.60;99.90;;;;;;4900681;29;20041;-84
2022/12/06 10:12:49;;;;;;;9.60;3.35;;;4.60;99.90;;;;;;4899424;29;20045;-84
2022/12/06 10:15:49;;;;;;;5.40;2.35;;;4.60;99.90;;;;;;4895842;29;20055;-85
2022/12/06 10:18:29;;;;;;;7.18;2.40;;;4.60;99.90;;;;;;4898717;29;20052;-85
2022/12/06 10:21:20;;;;;;;7.80;3.40;;;4.60;99.90;;;;;;4899232;29;20075;-84
2022/12/06 10:23:48;;;;;;;7.05;3.20;;;4.60;99.90;;;;;;4899368;29;20419;-82
2022/12/06 10:26:24;;;;;;;5.80;2.60;;;4.60;99.90;;;;;;4899077;29;20048;-81
2022/12/06 10:29:05;;;;;;;9.02;4.00;;;4.70;99.90;;;;;;4898051;29;20056;-81
2022/12/06 10:31:51;;;;;;;10.98;5.18;;;4.70;99.90;;;;;;4899937;29;20049;-82
2022/12/06 10:34:31;;;;;;;6.65;2.88;;;4.80;99.90;;;;;;4899514;29;20086;-82
2022/12/06 10:37:24;;;;;;;8.35;3.30;;;4.80;99.90;;;;;;4897948;29;20122;-82
2022/12/06 10:40:01;;;;;;;8.82;3.55;;;4.90;99.90;;;;;;4899120;29;20238;-82
2022/12/06 10:42:39;;;;;;;7.03;4.43;;;4.90;99.90;;;;;;4897710;29;20091;-82
2022/12/06 10:47:02;;;;;;;9.15;4.50;;;5.00;99.90;;;;;;4898938;29;20047;-82
2022/12/06 10:48:06;;;;;;;7.90;3.33;;;5.10;99.90;;;;;;4898598;29;20053;-82
2022/12/06 10:50:35;;;;;;;7.43;3.75;;;5.10;99.90;;;;;;4899249;29;20052;-82
2022/12/06 10:53:09;;;;;;;6.90;2.70;;;5.10;99.90;;;;;;4899968;29;20052;-82
2022/12/06 10:55:40;;;;;;;7.50;2.85;;;5.20;99.90;;;;;;4899552;29;20127;-82
2022/12/06 10:58:16;;;;;;;6.03;2.33;;;5.20;99.90;;;;;;4897821;29;20139;-82
2022/12/06 11:01:05;;;;;;;7.90;2.38;;;5.30;99.90;;;;;;4899723;29;20040;-82
2022/12/06 11:03:43;;;;;;;6.05;2.53;;;5.30;99.90;;;;;;4897261;29;20108;-82
2022/12/06 11:06:36;;;;;;;5.18;2.22;;;5.40;99.90;;;;;;4898907;29;20088;-82
2022/12/06 11:09:32;;;;;;;5.55;2.58;;;5.40;99.90;;;;;;4898667;29;20088;-83
2022/12/06 11:11:58;;;;;;;6.78;2.63;;;5.40;99.90;;;;;;4897850;29;20062;-82
2022/12/06 11:14:37;;;;;;;4.82;2.08;;;5.40;99.90;;;;;;4899174;29;20124;-82
2022/12/06 11:17:13;;;;;;;5.10;2.30;;;5.50;99.90;;;;;;4898633;29;20131;-82
2022/12/06 11:20:02;;;;;;;4.78;2.38;;;5.50;99.90;;;;;;4899538;29;20104;-82
2022/12/06 11:23:12;;;;;;;12.00;2.88;;;5.50;99.90;;;;;;4890308;29;20056;-83
2022/12/06 11:25:44;;;;;;;6.78;2.42;;;5.60;99.90;;;;;;4887132;29;20105;-82
2022/12/06 11:28:20;;;;;;;6.50;2.50;;;5.60;99.90;;;;;;4897911;29;20053;-82
2022/12/06 11:30:45;;;;;;;7.85;2.15;;;5.60;99.90;;;;;;4899319;29;20055;-82
2022/12/06 11:33:12;;;;;;;4.88;2.28;;;5.60;99.90;;;;;;4896806;29;20135;-82
2022/12/06 11:35:39;;;;;;;6.38;2.13;;;5.70;99.90;;;;;;4898826;29;20171;-82
2022/12/06 11:38:06;;;;;;;6.50;2.25;;;5.70;99.90;;;;;;4899235;29;20087;-82
2022/12/06 11:40:36;;;;;;;26.25;12.40;;;5.70;99.90;;;;;;4898863;29;20461;-82
2022/12/06 11:43:06;;;;;;;7.47;3.20;;;5.80;99.90;;;;;;4898194;29;20139;-83
2022/12/06 11:45:34;;;;;;;7.82;2.88;;;5.80;99.90;;;;;;4896101;29;20422;-83
2022/12/06 11:48:11;;;;;;;6.72;3.20;;;5.80;99.90;;;;;;4897759;29;20045;-83
2022/12/06 11:50:37;;;;;;;5.75;2.70;;;5.80;99.90;;;;;;4897491;29;20040;-83
2022/12/06 11:53:10;;;;;;;10.10;3.00;;;5.80;99.90;;;;;;4896677;29;20063;-83
2022/12/06 11:55:42;;;;;;;11.10;3.50;;;5.90;99.90;;;;;;4897983;29;20087;-83
2022/12/06 11:58:15;;;;;;;8.85;4.13;;;5.90;99.90;;;;;;4897816;29;20084;-83
2022/12/06 12:01:03;;;;;;;7.80;3.40;;;5.90;99.90;;;;;;4897918;29;20056;-83
2022/12/06 12:03:35;;;;;;;6.82;3.55;;;6.00;99.90;;;;;;4898783;29;20060;-83
2022/12/06 12:06:23;;;;;;;11.18;5.22;;;6.00;99.90;;;;;;4899141;29;20048;-83
2022/12/06 12:08:57;;;;;;;7.00;2.55;;;6.00;99.90;;;;;;4897590;29;20048;-83
2022/12/06 12:11:24;;;;;;;;;;;6.10;99.90;;;;;;4899177;29;20516;-83
2022/12/06 12:13:54;;;;;;;8.73;3.30;;;6.10;99.90;;;;;;4896590;29;19927;-82
2022/12/06 12:16:28;;;;;;;6.03;2.38;;;6.10;99.90;;;;;;4897948;29;20143;-83
2022/12/06 12:19:06;;;;;;;10.30;3.47;;;6.10;99.90;;;;;;4897579;29;20040;-82
2022/12/06 12:21:40;;;;;;;7.72;2.45;;;6.10;99.90;;;;;;4896093;29;20048;-87
2022/12/06 12:24:44;;;;;;;6.35;2.63;;;6.20;99.90;;;;;;4897333;29;20105;-85
2022/12/06 12:27:35;;;;;;;8.15;3.08;;;6.20;99.90;;;;;;4897389;29;20085;-85
2022/12/06 12:30:20;;;;;;;11.70;6.00;;;6.20;99.90;;;;;;4890742;29;20059;-86
2022/12/06 12:32:48;;;;;;;10.10;4.47;;;6.20;99.90;;;;;;4896764;29;20048;-85
2022/12/06 12:35:19;;;;;;;13.98;5.47;;;6.20;99.90;;;;;;4897171;29;20047;-85
2022/12/06 12:37:54;;;;;;;5.05;2.15;;;6.20;99.90;;;;;;4897584;29;20045;-82
2022/12/06 12:40:25;;;;;;;8.57;2.80;;;6.20;99.90;;;;;;4886497;29;20123;-82
2022/12/06 12:43:13;;;;;;;6.13;2.13;;;6.20;99.90;;;;;;4896333;29;20061;-82
2022/12/06 12:46:00;;;;;;;6.35;3.10;;;6.20;99.90;;;;;;4897866;29;20522;-82
2022/12/06 12:48:26;;;;;;;7.20;3.28;;;6.20;99.90;;;;;;4897388;29;20055;-82
2022/12/06 12:50:58;;;;;;;4.63;2.00;;;6.20;99.90;;;;;;4896907;29;20108;-84
2022/12/06 12:53:37;;;;;;;7.55;2.00;;;6.20;99.90;;;;;;4898867;29;20084;-84
2022/12/06 12:56:15;;;;;;;7.25;2.30;;;6.30;99.90;;;;;;4899651;29;20051;-84
2022/12/06 12:58:41;;;;;;;8.35;2.78;;;6.30;99.90;;;;;;4904237;29;20072;-83
2022/12/06 13:01:16;;;;;;;6.30;2.15;;;6.30;99.90;;;;;;4902578;29;20497;-85
2022/12/06 13:03:43;;;;;;;7.93;2.60;;;6.30;99.90;;;;;;4900797;29;20119;-86
2022/12/06 13:06:38;;;;;;;7.28;2.10;;;6.30;99.90;;;;;;4900118;29;20135;-82
2022/12/06 13:09:05;;;;;;;8.43;2.45;;;6.40;99.90;;;;;;4901305;29;20095;-84
2022/12/06 13:11:41;;;;;;;8.38;2.00;;;6.40;99.90;;;;;;4898341;29;20048;-84
2022/12/06 13:14:17;;;;;;;7.03;2.50;;;6.40;99.90;;;;;;4894209;29;20048;-83
2022/12/06 13:16:44;;;;;;;6.53;2.80;;;6.40;99.90;;;;;;4896733;29;20059;-83
2022/12/06 13:19:16;;;;;;;8.60;2.88;;;6.40;99.90;;;;;;4900805;29;20120;-83
2022/12/06 13:21:43;;;;;;;9.82;3.65;;;6.40;99.90;;;;;;4891320;29;20421;-83
2022/12/06 13:24:11;;;;;;;12.20;3.92;;;6.50;99.90;;;;;;4895723;29;20053;-83
2022/12/06 13:26:50;;;;;;;12.73;3.60;;;6.50;99.90;;;;;;4899747;29;20410;-83
2022/12/06 13:29:39;;;;;;;12.05;5.70;;;6.50;99.90;;;;;;4899758;29;20437;-82
2022/12/06 13:32:13;;;;;;;7.75;2.50;;;6.50;99.90;;;;;;4898666;29;20471;-82
2022/12/06 13:34:46;;;;;;;7.43;3.80;;;6.50;99.90;;;;;;4886530;29;20044;-83
2022/12/06 13:37:33;;;;;;;10.80;4.60;;;6.50;99.90;;;;;;4899619;29;20052;-83
2022/12/06 13:40:01;;;;;;;7.45;2.25;;;6.50;99.90;;;;;;4899009;29;20143;-83
2022/12/06 13:42:35;;;;;;;5.65;2.58;;;6.50;99.90;;;;;;4899700;29;20447;-83
2022/12/06 13:45:03;;;;;;;8.60;3.22;;;6.60;99.90;;;;;;4893982;29;20572;-83